createdAt,value
2023-05-10T00:00:54.194Z,44.18
2023-05-10T00:01:55.939Z,44.27
2023-05-10T00:02:57.762Z,44.35
2023-05-10T00:03:59.540Z,44.29
2023-05-10T00:05:01.308Z,44.16
2023-05-10T00:06:03.086Z,44.10
2023-05-10T00:07:04.877Z,44.05
2023-05-10T00:08:06.656Z,44.02
2023-05-10T00:09:08.502Z,44.03
2023-05-10T00:10:10.399Z,44.53
2023-05-10T00:11:12.183Z,44.53
2023-05-10T00:12:13.983Z,44.29
2023-05-10T00:13:15.835Z,44.27
2023-05-10T00:14:17.638Z,44.25
2023-05-10T00:15:19.284Z,44.21
2023-05-10T00:16:21.446Z,44.15
2023-05-10T00:17:23.206Z,44.13
2023-05-10T00:18:24.889Z,44.13
2023-05-10T00:19:26.626Z,44.11
2023-05-10T00:20:28.413Z,44.09
2023-05-10T00:21:30.142Z,44.07
2023-05-10T00:22:31.903Z,44.12
2023-05-10T00:23:33.562Z,44.12
2023-05-10T00:24:35.390Z,44.07
2023-05-10T00:25:37.194Z,44.03
2023-05-10T00:26:38.978Z,44.06
2023-05-10T00:27:40.773Z,44.03
2023-05-10T00:28:42.459Z,44.01
2023-05-10T00:29:44.278Z,44.01
2023-05-10T00:30:46.081Z,44.01
2023-05-10T00:31:47.788Z,44.02
2023-05-10T00:32:49.677Z,44.05
2023-05-10T00:33:51.344Z,44.03
2023-05-10T00:34:53.163Z,44.03
2023-05-10T00:35:54.833Z,44.05
2023-05-10T00:36:56.634Z,44.11
2023-05-10T00:37:58.328Z,44.19
2023-05-10T00:39:00.028Z,44.21
2023-05-10T00:40:01.828Z,44.16
2023-05-10T00:41:03.611Z,44.09
2023-05-10T00:42:05.429Z,44.15
2023-05-10T00:43:07.289Z,44.17
2023-05-10T00:44:09.089Z,44.20
2023-05-10T00:45:10.802Z,44.27
2023-05-10T00:46:12.724Z,44.33
2023-05-10T00:47:14.387Z,44.37
2023-05-10T00:48:16.110Z,44.34
2023-05-10T00:49:17.799Z,44.36
2023-05-10T00:50:19.729Z,44.39
2023-05-10T00:51:21.414Z,44.40
2023-05-10T00:52:23.116Z,44.35
2023-05-10T00:53:24.897Z,44.32
2023-05-10T00:54:26.594Z,44.34
2023-05-10T00:55:28.337Z,44.35
2023-05-10T00:56:30.240Z,44.38
2023-05-10T00:57:32.031Z,44.46
2023-05-10T00:58:33.829Z,44.53
2023-05-10T00:59:35.628Z,44.60
2023-05-10T01:00:37.478Z,44.66
2023-05-10T01:01:39.179Z,44.66
2023-05-10T01:02:41.005Z,44.61
2023-05-10T01:03:42.749Z,44.67
2023-05-10T01:04:44.620Z,44.87
2023-05-10T01:05:46.482Z,45.05
2023-05-10T01:06:48.281Z,45.19
2023-05-10T01:07:50.089Z,45.29
2023-05-10T01:08:51.863Z,45.34
2023-05-10T01:09:53.663Z,45.37
2023-05-10T01:10:55.499Z,45.40
2023-05-10T01:11:57.312Z,45.41
2023-05-10T01:12:59.011Z,45.46
2023-05-10T01:14:00.672Z,45.47
2023-05-10T01:15:02.360Z,45.49
2023-05-10T01:16:04.420Z,45.54
2023-05-10T01:17:06.112Z,45.57
2023-05-10T01:18:07.807Z,45.56
2023-05-10T01:19:09.479Z,45.57
2023-05-10T01:20:11.290Z,45.56
2023-05-10T01:21:13.010Z,45.58
2023-05-10T01:22:14.718Z,45.65
2023-05-10T01:23:16.513Z,45.66
2023-05-10T01:24:18.214Z,45.70
2023-05-10T01:25:19.922Z,45.72
2023-05-10T01:26:21.732Z,45.76
2023-05-10T01:27:23.419Z,45.70
2023-05-10T01:28:25.311Z,45.69
2023-05-10T01:29:27.013Z,45.72
2023-05-10T01:30:28.813Z,45.75
2023-05-10T01:31:30.617Z,45.75
2023-05-10T01:32:32.365Z,45.77
2023-05-10T01:33:34.223Z,45.62
2023-05-10T01:34:35.915Z,45.39
2023-05-10T01:35:37.625Z,45.20
2023-05-10T01:36:39.448Z,45.11
2023-05-10T01:37:41.136Z,44.98
2023-05-10T01:38:42.857Z,44.86
2023-05-10T01:39:44.521Z,44.79
2023-05-10T01:40:46.327Z,44.72
2023-05-10T01:41:48.044Z,44.63
2023-05-10T01:42:49.777Z,44.55
2023-05-10T01:43:51.450Z,44.58
2023-05-10T01:44:53.146Z,44.57
2023-05-10T01:45:55.045Z,44.58
2023-05-10T01:46:56.957Z,44.65
2023-05-10T01:47:58.700Z,44.68
2023-05-10T01:49:00.361Z,44.61
2023-05-10T01:50:02.155Z,44.63
2023-05-10T01:51:03.951Z,44.62
2023-05-10T01:52:05.783Z,44.65
2023-05-10T01:53:07.586Z,44.67
2023-05-10T01:54:09.273Z,44.64
2023-05-10T01:55:10.972Z,44.65
2023-05-10T01:56:12.771Z,44.67
2023-05-10T01:57:14.509Z,44.72
2023-05-10T01:58:16.203Z,44.76
2023-05-10T01:59:17.983Z,44.70
2023-05-10T02:00:19.774Z,44.60
2023-05-10T02:01:21.638Z,44.58
2023-05-10T02:02:23.404Z,44.56
2023-05-10T02:03:25.253Z,44.78
2023-05-10T02:04:27.102Z,44.78
2023-05-10T02:05:28.894Z,44.40
2023-05-10T02:06:30.796Z,44.39
2023-05-10T02:07:32.582Z,44.41
2023-05-10T02:08:34.282Z,44.37
2023-05-10T02:09:35.978Z,44.30
2023-05-10T02:10:37.768Z,44.27
2023-05-10T02:11:39.451Z,44.28
2023-05-10T02:12:41.411Z,44.27
2023-05-10T02:13:43.208Z,44.20
2023-05-10T02:14:44.996Z,44.20
2023-05-10T02:15:46.779Z,44.21
2023-05-10T02:16:48.737Z,44.17
2023-05-10T02:17:50.501Z,44.13
2023-05-10T02:18:52.329Z,44.11
2023-05-10T02:19:54.117Z,44.14
2023-05-10T02:20:55.914Z,44.14
2023-05-10T02:21:57.613Z,44.14
2023-05-10T02:22:59.437Z,44.09
2023-05-10T02:24:01.130Z,44.03
2023-05-10T02:25:02.817Z,43.99
2023-05-10T02:26:04.706Z,44.03
2023-05-10T02:27:06.498Z,44.03
2023-05-10T02:28:08.338Z,44.07
2023-05-10T02:29:10.150Z,43.90
2023-05-10T02:30:13.308Z,43.90
2023-05-10T02:31:15.166Z,44.06
2023-05-10T02:32:17.009Z,44.05
2023-05-10T02:33:18.861Z,44.05
2023-05-10T02:34:20.746Z,44.07
2023-05-10T02:35:22.570Z,44.09
2023-05-10T02:36:24.346Z,44.10
2023-05-10T02:37:26.048Z,44.13
2023-05-10T02:38:27.856Z,44.09
2023-05-10T02:39:29.738Z,44.09
2023-05-10T02:40:31.548Z,44.07
2023-05-10T02:41:33.352Z,44.07
2023-05-10T02:42:35.144Z,44.07
2023-05-10T02:43:36.863Z,44.06
2023-05-10T02:44:38.654Z,44.04
2023-05-10T02:45:40.341Z,44.05
2023-05-10T02:46:42.154Z,44.03
2023-05-10T02:47:43.880Z,44.02
2023-05-10T02:48:45.577Z,44.04
2023-05-10T02:49:47.350Z,44.06
2023-05-10T02:50:49.151Z,44.06
2023-05-10T02:51:50.845Z,44.10
2023-05-10T02:52:52.646Z,44.12
2023-05-10T02:53:54.376Z,44.18
2023-05-10T02:54:56.089Z,44.23
2023-05-10T02:55:57.853Z,44.27
2023-05-10T02:56:59.659Z,44.37
2023-05-10T02:58:01.350Z,44.47
2023-05-10T02:59:03.070Z,44.54
2023-05-10T03:00:04.880Z,44.57
2023-05-10T03:01:06.690Z,44.64
2023-05-10T03:02:08.451Z,44.68
2023-05-10T03:03:10.251Z,44.68
2023-05-10T03:04:12.109Z,44.68
2023-05-10T03:05:13.875Z,44.75
2023-05-10T03:06:15.686Z,44.80
2023-05-10T03:07:17.982Z,44.83
2023-05-10T03:08:19.652Z,44.81
2023-05-10T03:09:21.379Z,44.77
2023-05-10T03:10:23.177Z,44.75
2023-05-10T03:11:24.956Z,44.79
2023-05-10T03:12:26.744Z,44.80
2023-05-10T03:13:28.643Z,44.83
2023-05-10T03:14:30.568Z,44.85
2023-05-10T03:15:32.342Z,44.87
2023-05-10T03:16:34.206Z,44.93
2023-05-10T03:17:35.967Z,44.96
2023-05-10T03:18:37.707Z,45.04
2023-05-10T03:19:39.439Z,45.12
2023-05-10T03:20:41.212Z,45.17
2023-05-10T03:21:42.891Z,45.25
2023-05-10T03:22:44.582Z,45.37
2023-05-10T03:23:46.366Z,45.46
2023-05-10T03:24:48.210Z,45.49
2023-05-10T03:25:49.898Z,45.51
2023-05-10T03:26:51.689Z,45.61
2023-05-10T03:27:53.476Z,45.60
2023-05-10T03:28:55.278Z,45.58
2023-05-10T03:29:57.091Z,45.56
2023-05-10T03:30:58.953Z,45.49
2023-05-10T03:32:00.773Z,45.52
2023-05-10T03:33:02.515Z,45.52
2023-05-10T03:34:04.256Z,45.54
2023-05-10T03:35:05.968Z,45.53
2023-05-10T03:36:07.994Z,45.62
2023-05-10T03:37:09.647Z,45.73
2023-05-10T03:38:11.433Z,45.80
2023-05-10T03:39:13.132Z,45.85
2023-05-10T03:40:15.319Z,45.79
2023-05-10T03:41:17.349Z,45.83
2023-05-10T03:42:19.028Z,45.96
2023-05-10T03:43:20.744Z,46.03
2023-05-10T03:44:22.518Z,46.08
2023-05-10T03:45:24.248Z,46.11
2023-05-10T03:46:26.089Z,46.14
2023-05-10T03:47:27.923Z,46.15
2023-05-10T03:48:29.597Z,46.05
2023-05-10T03:49:31.399Z,46.08
2023-05-10T03:50:33.223Z,46.10
2023-05-10T03:51:35.000Z,46.14
2023-05-10T03:52:36.823Z,46.16
2023-05-10T03:53:38.704Z,46.14
2023-05-10T03:54:40.501Z,46.17
2023-05-10T03:55:42.337Z,46.22
2023-05-10T03:56:44.111Z,46.28
2023-05-10T03:57:45.907Z,46.38
2023-05-10T03:58:47.592Z,46.19
2023-05-10T03:59:49.397Z,46.08
2023-05-10T04:00:51.223Z,46.08
2023-05-10T04:01:52.979Z,46.00
2023-05-10T04:02:54.767Z,46.06
2023-05-10T04:03:56.542Z,46.00
2023-05-10T04:04:58.430Z,45.76
2023-05-10T04:06:00.260Z,45.68
2023-05-10T04:07:02.069Z,45.67
2023-05-10T04:08:03.849Z,45.67
2023-05-10T04:09:05.639Z,45.62
2023-05-10T04:10:07.534Z,45.56
2023-05-10T04:11:09.265Z,45.47
2023-05-10T04:12:11.235Z,45.32
2023-05-10T04:13:13.076Z,45.02
2023-05-10T04:14:14.837Z,44.94
2023-05-10T04:15:16.529Z,44.83
2023-05-10T04:16:18.370Z,44.80
2023-05-10T04:17:20.088Z,44.85
2023-05-10T04:18:21.949Z,44.69
2023-05-10T04:19:23.722Z,44.51
2023-05-10T04:20:25.536Z,44.48
2023-05-10T04:21:27.348Z,44.48
2023-05-10T04:22:29.041Z,44.35
2023-05-10T04:23:30.714Z,44.22
2023-05-10T04:24:32.402Z,43.89
2023-05-10T04:25:34.094Z,43.79
2023-05-10T04:26:35.902Z,43.70
2023-05-10T04:27:37.617Z,43.62
2023-05-10T04:28:39.298Z,43.64
2023-05-10T04:29:41.005Z,43.65
2023-05-10T04:30:42.831Z,43.64
2023-05-10T04:31:44.703Z,43.69
2023-05-10T04:32:46.593Z,43.74
2023-05-10T04:33:48.479Z,43.47
2023-05-10T04:34:50.347Z,43.40
2023-05-10T04:35:52.180Z,43.23
2023-05-10T04:36:54.093Z,43.26
2023-05-10T04:37:55.899Z,43.21
2023-05-10T04:38:57.576Z,43.23
2023-05-10T04:39:59.361Z,43.29
2023-05-10T04:41:01.163Z,43.16
2023-05-10T04:42:02.887Z,43.06
2023-05-10T04:43:04.585Z,42.90
2023-05-10T04:44:06.373Z,42.63
2023-05-10T04:45:08.166Z,42.39
2023-05-10T04:46:10.207Z,42.30
2023-05-10T04:47:12.788Z,42.24
2023-05-10T04:48:14.712Z,42.24
2023-05-10T04:49:16.493Z,42.05
2023-05-10T04:50:18.547Z,42.03
2023-05-10T04:51:20.454Z,42.02
2023-05-10T04:52:22.183Z,41.94
2023-05-10T04:53:23.859Z,41.92
2023-05-10T04:54:25.550Z,41.79
2023-05-10T04:55:27.355Z,41.79
2023-05-10T04:56:29.132Z,41.69
2023-05-10T04:57:30.961Z,41.70
2023-05-10T04:58:32.759Z,41.70
2023-05-10T04:59:34.556Z,41.50
2023-05-10T05:00:36.342Z,41.51
2023-05-10T05:01:39.212Z,41.45
2023-05-10T05:02:41.205Z,41.41
2023-05-10T05:03:43.077Z,41.35
2023-05-10T05:04:44.754Z,41.26
2023-05-10T05:05:46.428Z,40.98
2023-05-10T05:06:48.219Z,40.91
2023-05-10T05:07:49.968Z,40.91
2023-05-10T05:08:51.666Z,40.94
2023-05-10T05:09:53.478Z,40.93
2023-05-10T05:10:55.252Z,40.81
2023-05-10T05:11:57.049Z,40.76
2023-05-10T05:12:58.791Z,40.88
2023-05-10T05:14:00.639Z,40.75
2023-05-10T05:15:02.397Z,40.58
2023-05-10T05:16:04.289Z,40.40
2023-05-10T05:17:05.994Z,40.41
2023-05-10T05:18:07.886Z,40.49
2023-05-10T05:19:09.753Z,40.64
2023-05-10T05:20:11.750Z,40.76
2023-05-10T05:21:13.534Z,40.82
2023-05-10T05:22:15.718Z,40.93
2023-05-10T05:23:17.981Z,41.16
2023-05-10T05:24:19.841Z,41.16
2023-05-10T05:25:21.677Z,41.17
2023-05-10T05:26:23.488Z,41.31
2023-05-10T05:27:25.286Z,41.35
2023-05-10T05:28:27.134Z,41.51
2023-05-10T05:29:28.816Z,41.59
2023-05-10T05:30:30.762Z,41.46
2023-05-10T05:31:32.506Z,41.36
2023-05-10T05:32:34.293Z,41.31
2023-05-10T05:33:36.171Z,41.30
2023-05-10T05:34:37.871Z,40.92
2023-05-10T05:35:39.666Z,40.84
2023-05-10T05:36:41.460Z,40.80
2023-05-10T05:37:43.284Z,40.79
2023-05-10T05:38:45.092Z,40.90
2023-05-10T05:39:46.873Z,40.91
2023-05-10T05:40:48.683Z,40.73
2023-05-10T05:41:50.361Z,40.64
2023-05-10T05:42:52.209Z,40.72
2023-05-10T05:43:53.937Z,40.69
2023-05-10T05:44:55.652Z,40.61
2023-05-10T05:45:57.319Z,40.46
2023-05-10T05:46:59.119Z,40.44
2023-05-10T05:48:00.898Z,40.26
2023-05-10T05:49:02.773Z,40.26
2023-05-10T05:50:04.662Z,40.11
2023-05-10T05:51:07.400Z,40.11
2023-05-10T05:52:09.362Z,40.30
2023-05-10T05:53:11.167Z,40.32
2023-05-10T05:54:12.900Z,40.38
2023-05-10T05:55:14.697Z,40.35
2023-05-10T05:56:16.694Z,40.23
2023-05-10T05:57:18.493Z,40.29
2023-05-10T05:58:20.253Z,40.38
2023-05-10T05:59:22.091Z,40.43
2023-05-10T06:00:23.892Z,40.53
2023-05-10T06:01:25.691Z,40.49
2023-05-10T06:02:27.576Z,40.38
2023-05-10T06:03:29.622Z,40.36
2023-05-10T06:04:31.441Z,40.43
2023-05-10T06:05:33.353Z,40.46
2023-05-10T06:06:35.179Z,40.47
2023-05-10T06:07:37.055Z,40.55
2023-05-10T06:08:38.809Z,40.49
2023-05-10T06:09:40.724Z,40.52
2023-05-10T06:10:42.580Z,40.44
2023-05-10T06:11:44.293Z,40.44
2023-05-10T06:12:46.092Z,40.45
2023-05-10T06:13:47.775Z,40.41
2023-05-10T06:14:49.469Z,40.31
2023-05-10T06:15:51.161Z,40.33
2023-05-10T06:16:53.079Z,40.44
2023-05-10T06:17:54.916Z,40.55
2023-05-10T06:18:56.681Z,40.60
2023-05-10T06:19:58.532Z,40.63
2023-05-10T06:21:00.314Z,40.68
2023-05-10T06:22:02.128Z,40.75
2023-05-10T06:23:03.910Z,40.86
2023-05-10T06:24:05.600Z,40.70
2023-05-10T06:25:07.439Z,40.52
2023-05-10T06:26:09.741Z,40.47
2023-05-10T06:27:11.460Z,40.23
2023-05-10T06:28:13.138Z,40.29
2023-05-10T06:29:14.946Z,40.21
2023-05-10T06:30:17.020Z,40.20
2023-05-10T06:31:18.852Z,40.08
2023-05-10T06:32:20.697Z,39.96
2023-05-10T06:33:22.477Z,39.90
2023-05-10T06:34:24.187Z,39.68
2023-05-10T06:35:25.917Z,39.51
2023-05-10T06:36:28.032Z,39.42
2023-05-10T06:37:29.824Z,39.19
2023-05-10T06:38:31.508Z,39.09
2023-05-10T06:39:33.326Z,38.91
2023-05-10T06:40:35.143Z,38.84
2023-05-10T06:41:36.836Z,38.85
2023-05-10T06:42:38.620Z,38.46
2023-05-10T06:43:40.423Z,38.34
2023-05-10T06:44:42.252Z,38.14
2023-05-10T06:45:43.964Z,37.95
2023-05-10T06:46:45.808Z,37.93
2023-05-10T06:47:47.516Z,37.89
2023-05-10T06:48:49.377Z,37.92
2023-05-10T06:49:51.218Z,37.88
2023-05-10T06:50:53.061Z,37.85
2023-05-10T06:51:54.852Z,37.80
2023-05-10T06:52:56.649Z,37.83
2023-05-10T06:53:58.339Z,37.97
2023-05-10T06:55:00.058Z,37.90
2023-05-10T06:56:01.903Z,37.67
2023-05-10T06:57:04.163Z,37.73
2023-05-10T06:58:07.229Z,37.70
2023-05-10T06:59:09.068Z,37.66
2023-05-10T07:00:10.971Z,37.69
2023-05-10T07:01:12.884Z,37.71
2023-05-10T07:02:14.772Z,37.67
2023-05-10T07:03:16.772Z,37.70
2023-05-10T07:04:18.708Z,37.69
2023-05-10T07:05:20.947Z,37.67
2023-05-10T07:06:32.927Z,37.72
2023-05-10T07:07:26.667Z,37.69
2023-05-10T07:08:28.368Z,37.61
2023-05-10T07:09:30.152Z,37.62
2023-05-10T07:10:31.966Z,37.58
2023-05-10T07:11:33.859Z,37.53
2023-05-10T07:12:35.577Z,37.41
2023-05-10T07:13:37.268Z,37.32
2023-05-10T07:14:39.142Z,37.29
2023-05-10T07:15:40.910Z,37.50
2023-05-10T07:16:42.929Z,37.72
2023-05-10T07:17:46.074Z,38.02
2023-05-10T07:18:48.086Z,38.02
2023-05-10T07:19:49.888Z,38.37
2023-05-10T07:20:51.705Z,38.72
2023-05-10T07:21:53.490Z,39.13
2023-05-10T07:22:55.277Z,39.51
2023-05-10T07:23:56.975Z,39.88
2023-05-10T07:24:58.798Z,40.17
2023-05-10T07:26:00.473Z,40.40
2023-05-10T07:27:02.317Z,40.68
2023-05-10T07:28:04.078Z,40.83
2023-05-10T07:29:05.853Z,40.93
2023-05-10T07:30:07.855Z,41.07
2023-05-10T07:31:09.609Z,41.28
2023-05-10T07:32:11.517Z,41.39
2023-05-10T07:33:13.426Z,41.25
2023-05-10T07:34:15.255Z,41.22
2023-05-10T07:35:17.207Z,41.29
2023-05-10T07:36:19.147Z,41.30
2023-05-10T07:37:20.875Z,41.35
2023-05-10T07:38:22.565Z,41.35
2023-05-10T07:39:27.275Z,41.37
2023-05-10T07:40:27.830Z,41.39
2023-05-10T07:41:29.663Z,41.50
2023-05-10T07:42:31.438Z,41.39
2023-05-10T07:43:33.135Z,41.33
2023-05-10T07:44:34.814Z,41.10
2023-05-10T07:45:36.752Z,40.92
2023-05-10T07:46:38.513Z,40.78
2023-05-10T07:47:40.365Z,40.72
2023-05-10T07:48:42.109Z,40.73
2023-05-10T07:49:43.800Z,40.64
2023-05-10T07:50:45.615Z,40.48
2023-05-10T07:51:47.425Z,40.10
2023-05-10T07:52:49.251Z,39.80
2023-05-10T07:53:50.929Z,39.61
2023-05-10T07:54:52.616Z,39.67
2023-05-10T07:55:54.411Z,39.77
2023-05-10T07:56:56.209Z,39.79
2023-05-10T07:57:58.139Z,39.82
2023-05-10T07:58:59.910Z,39.81
2023-05-10T08:00:02.123Z,39.89
2023-05-10T08:01:03.878Z,39.73
2023-05-10T08:02:05.699Z,39.76
2023-05-10T08:03:07.622Z,39.83
2023-05-10T08:04:09.615Z,40.01
2023-05-10T08:05:11.383Z,40.11
2023-05-10T08:06:14.131Z,40.27
2023-05-10T08:07:15.893Z,40.47
2023-05-10T08:08:17.703Z,40.46
2023-05-10T08:09:19.510Z,40.44
2023-05-10T08:10:21.344Z,40.32
2023-05-10T08:11:23.197Z,40.27
2023-05-10T08:12:24.988Z,40.35
2023-05-10T08:13:26.722Z,40.47
2023-05-10T08:14:28.531Z,40.51
2023-05-10T08:15:30.312Z,39.95
2023-05-10T08:16:32.342Z,39.62
2023-05-10T08:17:34.143Z,39.33
2023-05-10T08:18:35.852Z,39.08
2023-05-10T08:19:37.494Z,38.86
2023-05-10T08:20:39.392Z,38.44
2023-05-10T08:21:41.197Z,38.21
2023-05-10T08:22:42.996Z,38.16
2023-05-10T08:23:45.115Z,38.25
2023-05-10T08:24:47.023Z,38.25
2023-05-10T08:25:48.709Z,37.96
2023-05-10T08:26:50.496Z,37.87
2023-05-10T08:27:52.290Z,37.73
2023-05-10T08:28:54.014Z,37.67
2023-05-10T08:29:55.696Z,37.67
2023-05-10T08:30:57.503Z,37.58
2023-05-10T08:31:59.273Z,37.59
2023-05-10T08:33:01.275Z,37.89
2023-05-10T08:34:03.069Z,38.33
2023-05-10T08:35:04.857Z,38.70
2023-05-10T08:36:06.754Z,38.95
2023-05-10T08:37:08.548Z,39.18
2023-05-10T08:38:10.328Z,39.41
2023-05-10T08:39:23.085Z,39.57
2023-05-10T08:40:15.847Z,39.65
2023-05-10T08:41:17.659Z,39.68
2023-05-10T08:42:19.567Z,39.54
2023-05-10T08:43:21.393Z,39.43
2023-05-10T08:44:23.217Z,39.44
2023-05-10T08:45:25.008Z,39.42
2023-05-10T08:46:26.861Z,39.36
2023-05-10T08:47:28.628Z,39.21
2023-05-10T08:48:30.495Z,39.07
2023-05-10T08:49:32.301Z,39.12
2023-05-10T08:50:34.102Z,39.08
2023-05-10T08:51:35.874Z,39.06
2023-05-10T08:52:37.673Z,39.00
2023-05-10T08:53:39.454Z,39.02
2023-05-10T08:54:41.359Z,39.11
2023-05-10T08:55:43.130Z,39.17
2023-05-10T08:56:44.942Z,39.15
2023-05-10T08:57:46.724Z,39.14
2023-05-10T08:58:48.513Z,39.10
2023-05-10T08:59:50.343Z,39.09
2023-05-10T09:00:52.176Z,39.09
2023-05-10T09:01:53.940Z,39.10
2023-05-10T09:02:55.832Z,38.74
2023-05-10T09:03:57.691Z,38.77
2023-05-10T09:04:59.732Z,38.80
2023-05-10T09:06:01.683Z,38.79
2023-05-10T09:07:03.447Z,38.76
2023-05-10T09:08:05.253Z,38.80
2023-05-10T09:09:07.064Z,38.85
2023-05-10T09:10:10.407Z,38.97
2023-05-10T09:11:12.227Z,38.86
2023-05-10T09:12:13.931Z,38.71
2023-05-10T09:13:15.714Z,38.68
2023-05-10T09:14:17.501Z,38.83
2023-05-10T09:15:19.558Z,38.99
2023-05-10T09:16:22.429Z,39.02
2023-05-10T09:17:24.640Z,38.96
2023-05-10T09:18:28.046Z,38.98
2023-05-10T09:19:30.024Z,38.75
2023-05-10T09:20:31.877Z,38.85
2023-05-10T09:21:33.554Z,38.77
2023-05-10T09:22:35.389Z,38.89
2023-05-10T09:23:37.134Z,38.89
2023-05-10T09:24:38.927Z,38.82
2023-05-10T09:25:40.767Z,39.07
2023-05-10T09:26:42.633Z,39.41
2023-05-10T09:27:44.425Z,39.41
2023-05-10T09:28:46.215Z,39.39
2023-05-10T09:29:48.009Z,39.55
2023-05-10T09:30:49.880Z,39.86
2023-05-10T09:31:51.539Z,40.21
2023-05-10T09:32:53.382Z,40.52
2023-05-10T09:33:55.127Z,40.69
2023-05-10T09:34:56.833Z,40.54
2023-05-10T09:35:58.676Z,40.41
2023-05-10T09:37:00.486Z,40.31
2023-05-10T09:38:02.284Z,40.28
2023-05-10T09:39:04.092Z,40.34
2023-05-10T09:40:06.087Z,40.14
2023-05-10T09:41:07.902Z,39.77
2023-05-10T09:42:09.775Z,39.62
2023-05-10T09:43:11.600Z,39.53
2023-05-10T09:44:13.308Z,39.41
2023-05-10T09:45:15.278Z,39.29
2023-05-10T09:46:17.414Z,39.18
2023-05-10T09:47:19.249Z,39.16
2023-05-10T09:48:21.050Z,39.19
2023-05-10T09:49:22.846Z,39.15
2023-05-10T09:50:24.636Z,39.07
2023-05-10T09:51:26.638Z,39.04
2023-05-10T09:52:28.430Z,38.88
2023-05-10T09:53:30.212Z,38.45
2023-05-10T09:54:32.006Z,38.23
2023-05-10T09:55:33.696Z,38.17
2023-05-10T09:56:35.647Z,38.02
2023-05-10T09:57:37.510Z,37.95
2023-05-10T09:58:39.315Z,37.97
2023-05-10T09:59:41.111Z,37.96
2023-05-10T10:00:42.939Z,37.91
2023-05-10T10:01:44.685Z,37.93
2023-05-10T10:02:46.604Z,38.08
2023-05-10T10:03:48.433Z,38.14
2023-05-10T10:04:50.365Z,38.18
2023-05-10T10:05:52.154Z,38.23
2023-05-10T10:06:53.992Z,38.29
2023-05-10T10:07:55.772Z,38.27
2023-05-10T10:08:57.575Z,38.18
2023-05-10T10:09:59.271Z,37.78
2023-05-10T10:11:01.073Z,37.76
2023-05-10T10:12:02.914Z,37.71
2023-05-10T10:13:04.711Z,37.70
2023-05-10T10:14:06.398Z,37.79
2023-05-10T10:15:08.104Z,38.04
2023-05-10T10:16:10.817Z,37.63
2023-05-10T10:17:12.629Z,37.32
2023-05-10T10:18:14.438Z,37.05
2023-05-10T10:19:16.241Z,36.90
2023-05-10T10:20:18.590Z,36.68
2023-05-10T10:21:20.441Z,36.64
2023-05-10T10:22:22.270Z,36.34
2023-05-10T10:23:24.093Z,36.47
2023-05-10T10:24:25.907Z,36.47
2023-05-10T10:25:27.712Z,35.84
2023-05-10T10:26:29.496Z,35.75
2023-05-10T10:27:31.229Z,35.76
2023-05-10T10:28:32.933Z,35.75
2023-05-10T10:29:34.754Z,35.75
2023-05-10T10:30:36.669Z,35.70
2023-05-10T10:31:38.490Z,35.74
2023-05-10T10:32:40.380Z,35.68
2023-05-10T10:33:42.059Z,35.66
2023-05-10T10:34:43.873Z,35.77
2023-05-10T10:35:45.567Z,35.78
2023-05-10T10:36:47.462Z,35.61
2023-05-10T10:37:49.297Z,35.70
2023-05-10T10:38:51.081Z,35.61
2023-05-10T10:39:52.886Z,35.35
2023-05-10T10:40:54.689Z,35.09
2023-05-10T10:41:56.493Z,34.98
2023-05-10T10:42:58.320Z,35.08
2023-05-10T10:44:00.123Z,35.12
2023-05-10T10:45:01.919Z,35.14
2023-05-10T10:46:03.917Z,35.30
2023-05-10T10:47:05.848Z,35.42
2023-05-10T10:48:07.882Z,35.70
2023-05-10T10:49:09.737Z,36.22
2023-05-10T10:50:11.728Z,36.90
2023-05-10T10:51:13.550Z,37.47
2023-05-10T10:52:15.257Z,37.94
2023-05-10T10:53:17.141Z,38.28
2023-05-10T10:54:18.992Z,38.45
2023-05-10T10:55:20.863Z,38.52
2023-05-10T10:56:22.695Z,38.41
2023-05-10T10:57:24.388Z,38.41
2023-05-10T10:58:26.126Z,38.45
2023-05-10T10:59:27.938Z,38.31
2023-05-10T11:00:29.729Z,38.21
2023-05-10T11:01:31.621Z,38.28
2023-05-10T11:02:33.585Z,38.27
2023-05-10T11:03:35.349Z,38.14
2023-05-10T11:04:37.099Z,38.13
2023-05-10T11:05:38.857Z,38.11
2023-05-10T11:06:40.634Z,38.13
2023-05-10T11:07:42.331Z,38.15
2023-05-10T11:08:44.167Z,38.14
2023-05-10T11:09:45.948Z,38.19
2023-05-10T11:10:47.743Z,38.23
2023-05-10T11:11:49.571Z,38.25
2023-05-10T11:12:51.358Z,38.24
2023-05-10T11:13:53.172Z,38.21
2023-05-10T11:14:54.979Z,38.18
2023-05-10T11:15:56.770Z,38.14
2023-05-10T11:16:58.599Z,38.16
2023-05-10T11:18:00.412Z,38.09
2023-05-10T11:19:02.329Z,38.09
2023-05-10T11:20:04.175Z,37.86
2023-05-10T11:21:06.009Z,37.94
2023-05-10T11:22:07.889Z,37.91
2023-05-10T11:23:09.697Z,37.96
2023-05-10T11:24:11.510Z,38.08
2023-05-10T11:25:13.201Z,38.07
2023-05-10T11:26:15.302Z,38.13
2023-05-10T11:27:17.102Z,38.18
2023-05-10T11:28:18.953Z,38.12
2023-05-10T11:29:20.756Z,38.03
2023-05-10T11:30:22.686Z,37.69
2023-05-10T11:31:24.544Z,36.77
2023-05-10T11:32:26.403Z,36.18
2023-05-10T11:33:28.178Z,35.33
2023-05-10T11:34:29.994Z,35.10
2023-05-10T11:35:31.807Z,35.23
2023-05-10T11:36:33.662Z,35.34
2023-05-10T11:37:35.408Z,35.33
2023-05-10T11:38:37.197Z,35.25
2023-05-10T11:39:39.058Z,34.94
2023-05-10T11:40:40.869Z,34.98
2023-05-10T11:41:43.110Z,34.79
2023-05-10T11:42:44.953Z,34.69
2023-05-10T11:43:46.732Z,34.68
2023-05-10T11:44:48.567Z,34.17
2023-05-10T11:45:50.376Z,33.98
2023-05-10T11:46:52.171Z,33.84
2023-05-10T11:47:53.977Z,33.64
2023-05-10T11:48:55.718Z,33.58
2023-05-10T11:49:57.441Z,33.55
2023-05-10T11:50:59.222Z,33.59
2023-05-10T11:52:00.917Z,33.75
2023-05-10T11:53:02.616Z,34.28
2023-05-10T11:54:04.400Z,34.73
2023-05-10T11:55:06.199Z,35.30
2023-05-10T11:56:08.118Z,35.84
2023-05-10T11:57:09.932Z,36.51
2023-05-10T11:58:11.715Z,37.19
2023-05-10T11:59:13.539Z,38.11
2023-05-10T12:00:16.224Z,38.94
2023-05-10T12:01:18.056Z,39.33
2023-05-10T12:02:19.891Z,39.44
2023-05-10T12:03:21.819Z,39.70
2023-05-10T12:04:23.750Z,39.89
2023-05-10T12:05:25.584Z,39.89
2023-05-10T12:06:27.362Z,39.96
2023-05-10T12:07:29.155Z,40.13
2023-05-10T12:08:30.872Z,40.39
2023-05-10T12:09:43.426Z,40.45
2023-05-10T12:10:36.201Z,40.11
2023-05-10T12:11:37.974Z,39.95
2023-05-10T12:12:39.782Z,40.22
2023-05-10T12:13:41.596Z,40.30
2023-05-10T12:14:43.402Z,40.30
2023-05-10T12:15:45.130Z,40.19
2023-05-10T12:16:46.969Z,40.29
2023-05-10T12:17:48.732Z,40.35
2023-05-10T12:18:50.685Z,40.15
2023-05-10T12:19:52.456Z,40.19
2023-05-10T12:20:54.277Z,40.30
2023-05-10T12:21:58.827Z,40.30
2023-05-10T12:23:00.864Z,40.34
2023-05-10T12:24:02.656Z,40.26
2023-05-10T12:25:04.439Z,40.02
2023-05-10T12:26:06.352Z,40.01
2023-05-10T12:27:08.138Z,40.30
2023-05-10T12:28:10.071Z,40.27
2023-05-10T12:29:11.918Z,40.16
2023-05-10T12:30:14.131Z,40.38
2023-05-10T12:31:16.210Z,40.23
2023-05-10T12:32:18.000Z,40.22
2023-05-10T12:33:19.713Z,40.44
2023-05-10T12:34:21.492Z,40.68
2023-05-10T12:35:23.292Z,41.15
2023-05-10T12:36:25.107Z,41.45
2023-05-10T12:37:26.888Z,41.81
2023-05-10T12:38:28.705Z,42.03
2023-05-10T12:39:30.425Z,42.25
2023-05-10T12:40:32.236Z,42.54
2023-05-10T12:41:34.050Z,42.92
2023-05-10T12:42:35.859Z,43.36
2023-05-10T12:43:37.651Z,43.67
2023-05-10T12:44:39.447Z,43.75
2023-05-10T12:45:41.278Z,43.67
2023-05-10T12:46:43.080Z,43.94
2023-05-10T12:47:44.911Z,44.11
2023-05-10T12:48:46.654Z,44.24
2023-05-10T12:49:48.343Z,44.46
2023-05-10T12:50:50.137Z,44.45
2023-05-10T12:51:51.994Z,44.61
2023-05-10T12:52:53.773Z,44.62
2023-05-10T12:53:55.477Z,44.57
2023-05-10T12:54:57.166Z,44.40
2023-05-10T12:55:58.970Z,44.41
2023-05-10T12:57:00.793Z,44.38
2023-05-10T12:58:02.603Z,44.13
2023-05-10T12:59:04.487Z,43.84
2023-05-10T13:00:06.777Z,43.71
2023-05-10T13:01:08.735Z,43.58
2023-05-10T13:02:10.474Z,43.39
2023-05-10T13:03:12.162Z,43.46
2023-05-10T13:04:13.884Z,43.40
2023-05-10T13:05:15.560Z,43.18
2023-05-10T13:06:17.535Z,42.76
2023-05-10T13:07:19.345Z,42.76
2023-05-10T13:08:21.158Z,42.91
2023-05-10T13:09:22.835Z,42.78
2023-05-10T13:10:24.633Z,42.58
2023-05-10T13:11:26.408Z,42.27
2023-05-10T13:12:28.215Z,42.20
2023-05-10T13:13:29.988Z,42.08
2023-05-10T13:14:31.800Z,41.81
2023-05-10T13:15:33.571Z,41.74
2023-05-10T13:16:35.442Z,41.60